Time;durP1;ratioP1;P1;durP2;ratioP2;P2;SDS_P1;SDS_P2;PMS_P1;PMS_P2;Temp;Humidity;BMP_temperature;BMP_pressure;BME280_temperature;BME280_humidity;BME280_pressure;Samples;Min_cycle;Max_cycle;Signal;HPM_P1;HPM_P2
2021/12/12 00:13:13;;;;;;;;;;;;;;;4.24;100.00;99611.56;5102308;28;20018;-64
2021/12/12 00:15:39;;;;;;;;;;;;;;;4.39;100.00;99611.63;5106430;28;19965;-64
2021/12/12 00:18:05;;;;;;;;;;;;;;;4.13;100.00;99609.00;5107089;28;19920;-64
2021/12/12 00:20:31;;;;;;;;;;;;;;;4.05;100.00;99614.91;5107431;28;19965;-64
2021/12/12 00:22:59;;;;;;;;;;;;;;;3.93;100.00;99618.28;5106104;28;19924;-65
2021/12/12 00:25:29;;;;;;;;;;;;;;;4.10;100.00;99616.63;5106325;28;19916;-64
2021/12/12 00:27:56;;;;;;;;;;;;;;;4.27;100.00;99603.13;5105662;28;19957;-64
2021/12/12 00:30:23;;;;;;;;;;;;;;;4.10;100.00;99618.34;5106271;28;19955;-64
2021/12/12 00:32:51;;;;;;;;;;;;;;;4.03;100.00;99617.44;5106089;28;19923;-64
2021/12/12 00:35:18;;;;;;;;;;;;;;;4.13;100.00;99614.09;5103524;28;19921;-64
2021/12/12 00:37:45;;;;;;;;;;;;;;;4.08;100.00;99610.69;5107914;28;19920;-64
2021/12/12 00:40:10;;;;;;;;;;;;;;;4.23;100.00;99609.03;5110277;28;19939;-64
2021/12/12 00:42:36;;;;;;;;;;;;;;;4.02;100.00;99605.56;5109731;28;19966;-64
2021/12/12 00:45:05;;;;;;;;;;;;;;;3.97;100.00;99607.25;5110378;28;19926;-63
2021/12/12 00:47:31;;;;;;;;;;;;;;;4.18;100.00;99597.13;5109192;28;19918;-64
2021/12/12 00:49:56;;;;;;;;;;;;;;;3.83;100.00;99598.66;5109819;28;20449;-64
2021/12/12 00:52:24;;;;;;;;;;;;;;;3.90;100.00;99592.75;5110576;28;19912;-64
2021/12/12 00:54:50;;;;;;;;;;;;;;;4.09;100.00;99599.66;5109440;28;20403;-64
2021/12/12 00:57:18;;;;;;;;;;;;;;;3.66;100.00;99589.25;5092299;28;20341;-64
2021/12/12 00:59:45;;;;;;;;;;;;;;;4.08;100.00;99603.06;5092026;28;20014;-64
2021/12/12 01:02:30;;;;;;;;;;;;;;;3.91;100.00;99609.75;5108676;28;19923;-64
2021/12/12 01:04:57;;;;;;;;;;;;;;;4.08;100.00;99617.47;5109392;28;19962;-64
2021/12/12 01:07:26;;;;;;;;;;;;;;;4.09;100.00;99602.19;5110811;27;20381;-64
2021/12/12 01:10:22;;;;;;;;;;;;;;;3.84;100.00;99611.44;5110836;28;20284;-64
2021/12/12 01:13:08;;;;;;;;;;;;;;;4.02;100.00;99600.47;5109397;28;19951;-64
2021/12/12 01:15:40;;;;;;;;;;;;;;;4.00;100.00;99606.41;5108682;28;19912;-64
2021/12/12 01:18:10;;;;;;;;;;;;;;;3.98;100.00;99603.84;5109776;28;19939;-64
2021/12/12 01:20:37;;;;;;;;;;;;;;;4.12;100.00;99599.66;5109820;28;19998;-64
2021/12/12 01:23:09;;;;;;;;;;;;;;;4.02;100.00;99597.94;5090589;28;19916;-64
2021/12/12 01:25:42;;;;;;;;;;;;;;;3.80;100.00;99599.50;5110375;28;20395;-64
2021/12/12 01:28:08;;;;;;;;;;;;;;;3.69;100.00;99611.34;5110520;28;20391;-64
2021/12/12 01:30:33;;;;;;;;;;;;;;;3.85;100.00;99607.19;5110184;28;19922;-64
2021/12/12 01:33:09;;;;;;;;;;;;;;;3.81;100.00;99605.44;5110587;28;19920;-64
2021/12/12 01:35:35;;;;;;;;;;;;;;;3.96;100.00;99605.53;5110619;28;19912;-64
2021/12/12 01:40:47;;;;;;;;;;;;;;;3.75;100.00;99594.38;5109907;28;19923;-64
2021/12/12 01:43:21;;;;;;;;;;;;;;;4.00;100.00;99591.13;5091688;28;20724;-65
2021/12/12 01:45:48;;;;;;;;;;;;;;;3.99;100.00;99585.16;5109039;28;19919;-64
2021/12/12 01:48:23;;;;;;;;;;;;;;;3.92;100.00;99586.84;5091210;28;19973;-65
2021/12/12 01:50:51;;;;;;;;;;;;;;;4.13;100.00;99573.31;5109454;28;19916;-64
2021/12/12 01:53:23;;;;;;;;;;;;;;;4.07;100.00;99573.28;5109786;28;19943;-64
2021/12/12 01:55:59;;;;;;;;;;;;;;;3.97;100.00;99574.13;5109307;28;19919;-64
2021/12/12 01:58:27;;;;;;;;;;;;;;;3.94;100.00;99574.94;5109465;28;19912;-64
2021/12/12 02:00:54;;;;;;;;;;;;;;;4.07;100.00;99578.41;5110490;28;20359;-64
2021/12/12 02:03:21;;;;;;;;;;;;;;;4.14;100.00;99571.63;5109311;28;19916;-64
2021/12/12 02:06:15;;;;;;;;;;;;;;;4.09;100.00;99569.06;5090110;28;19980;-64
2021/12/12 02:08:41;;;;;;;;;;;;;;;4.02;100.00;99572.44;5099661;28;19916;-65
2021/12/12 02:11:15;;;;;;;;;;;;;;;4.02;100.00;99574.13;5092000;28;19922;-65
2021/12/12 02:13:42;;;;;;;;;;;;;;;4.11;100.00;99569.06;5110263;28;19969;-64
2021/12/12 02:16:08;;;;;;;;;;;;;;;3.90;100.00;99570.69;5090169;28;19919;-65
2021/12/12 02:18:37;;;;;;;;;;;;;;;4.06;100.00;99565.63;5110567;28;19916;-64
2021/12/12 02:21:24;;;;;;;;;;;;;;;3.82;100.00;99559.63;5092717;28;19916;-64
2021/12/12 02:38:07;;;;;;;;;;;;;;;4.36;100.00;99557.25;5026666;28;20631;-65
2021/12/12 02:40:37;;;;;;;;;;;;;;;4.26;100.00;99542.75;5039222;28;20321;-64
2021/12/12 02:43:04;;;;;;;;;;;;;;;4.02;100.00;99541.84;5039630;28;19913;-64
2021/12/12 02:45:31;;;;;;;;;;;;;;;4.53;100.00;99547.06;5036740;28;19913;-63
2021/12/12 02:48:04;;;;;;;;;;;;;;;4.33;100.00;99539.38;5040625;28;19996;-64
2021/12/12 02:50:35;;;;;;;;;;;;;;;4.43;100.00;99540.25;5036720;28;19923;-64
2021/12/12 02:53:06;;;;;;;;;;;;;;;4.46;100.00;99530.91;5038447;28;19925;-64
2021/12/12 02:55:33;;;;;;;;;;;;;;;4.24;100.00;99529.16;5041958;28;20028;-64
2021/12/12 02:58:00;;;;;;;;;;;;;;;4.22;100.00;99530.84;5024761;28;20517;-64
2021/12/12 03:00:31;;;;;;;;;;;;;;;4.41;100.00;99530.03;5044453;28;20432;-64
2021/12/12 03:03:00;;;;;;;;;;;;;;;4.20;100.00;99523.22;5053577;28;19911;-64
2021/12/12 03:05:34;;;;;;;;;;;;;;;3.97;100.00;99516.34;5091060;28;19916;-64
2021/12/12 03:08:01;;;;;;;;;;;;;;;4.08;100.00;99524.03;5109620;28;19925;-65
2021/12/12 03:10:31;;;;;;;;;;;;;;;3.98;100.00;99527.41;5109096;28;19970;-64
2021/12/12 03:12:58;;;;;;;;;;;;;;;3.96;100.00;99540.13;5109542;28;19970;-65
2021/12/12 03:15:27;;;;;;;;;;;;;;;4.12;100.00;99535.91;5107104;28;20002;-64
2021/12/12 03:17:53;;;;;;;;;;;;;;;4.04;100.00;99534.19;5091159;28;20373;-64
2021/12/12 03:20:34;;;;;;;;;;;;;;;4.09;100.00;99533.38;5109098;28;19912;-65
2021/12/12 03:23:00;;;;;;;;;;;;;;;4.15;100.00;99535.94;5108081;28;19922;-64
2021/12/12 03:25:26;;;;;;;;;;;;;;;4.27;100.00;99534.28;5108758;28;20006;-64
2021/12/12 03:27:52;;;;;;;;;;;;;;;4.47;100.00;99540.25;5107763;28;20402;-64
2021/12/12 03:30:19;;;;;;;;;;;;;;;4.17;100.00;99534.25;5107654;28;19912;-64
2021/12/12 03:32:44;;;;;;;;;;;;;;;4.34;100.00;99530.88;5108586;28;19920;-63
2021/12/12 03:35:10;;;;;;;;;;;;;;;4.16;100.00;99532.53;5109043;28;20364;-64
2021/12/12 03:37:37;;;;;;;;;;;;;;;4.14;100.00;99534.22;5108736;28;20223;-63
2021/12/12 03:40:14;;;;;;;;;;;;;;;4.28;100.00;99543.63;5108710;28;19917;-63
2021/12/12 03:42:40;;;;;;;;;;;;;;;4.29;100.00;99542.75;5107762;28;19922;-64
2021/12/12 03:45:06;;;;;;;;;;;;;;;4.17;100.00;99539.34;5106951;28;19998;-64
2021/12/12 03:47:34;;;;;;;;;;;;;;;4.30;100.00;99545.31;5106842;28;19916;-64
2021/12/12 03:50:00;;;;;;;;;;;;;;;4.27;100.00;99544.47;5090877;28;20037;-63
2021/12/12 03:52:26;;;;;;;;;;;;;;;4.28;100.00;99535.97;5108659;28;19929;-64
2021/12/12 03:54:53;;;;;;;;;;;;;;;4.29;100.00;99541.06;5108992;28;19943;-64
2021/12/12 03:57:20;;;;;;;;;;;;;;;4.32;100.00;99537.69;5108815;28;19920;-64
2021/12/12 04:02:49;;;;;;;;;;;;;;;4.28;100.00;99535.97;5108450;28;19960;-63
2021/12/12 04:05:17;;;;;;;;;;;;;;;4.28;100.00;99530.88;5108486;28;19911;-64
2021/12/12 04:07:43;;;;;;;;;;;;;;;4.39;100.00;99529.19;5108478;28;19991;-64
2021/12/12 04:10:09;;;;;;;;;;;;;;;4.53;100.00;99537.69;5109290;28;19922;-64
2021/12/12 04:12:37;;;;;;;;;;;;;;;4.33;100.00;99529.16;5108931;28;19923;-64
2021/12/12 04:15:03;;;;;;;;;;;;;;;4.52;100.00;99536.00;5090619;28;19911;-64
2021/12/12 04:17:32;;;;;;;;;;;;;;;4.52;100.00;99541.13;5107425;28;20373;-64
2021/12/12 04:19:58;;;;;;;;;;;;;;;4.70;100.00;99535.19;5090114;28;20015;-64
2021/12/12 04:22:24;;;;;;;;;;;;;;;4.56;100.00;99535.16;5108869;28;19920;-63
2021/12/12 04:24:53;;;;;;;;;;;;;;;4.45;100.00;99533.44;5108481;28;19912;-63
2021/12/12 04:27:19;;;;;;;;;;;;;;;4.43;100.00;99532.59;5108812;28;19959;-64
2021/12/12 04:29:46;;;;;;;;;;;;;;;4.60;100.00;99543.66;5108071;28;20368;-64
2021/12/12 04:32:18;;;;;;;;;;;;;;;4.48;100.00;99544.50;5106309;28;20281;-63
2021/12/12 04:34:45;;;;;;;;;;;;;;;4.63;100.00;99537.69;5107901;28;19912;-64
2021/12/12 04:37:12;;;;;;;;;;;;;;;4.86;100.00;99550.47;5106794;28;19912;-64
2021/12/12 04:39:40;;;;;;;;;;;;;;;4.69;100.00;99558.13;5107618;28;19916;-64
2021/12/12 04:42:13;;;;;;;;;;;;;;;4.84;100.00;99557.31;5108279;28;20265;-64
2021/12/12 04:44:40;;;;;;;;;;;;;;;4.66;100.00;99547.94;5107197;28;19926;-64
2021/12/12 04:49:56;;;;;;;;;;;;;;;4.58;100.00;99546.22;5107498;28;19968;-64
2021/12/12 04:52:36;;;;;;;;;;;;;;;4.90;100.00;99547.91;5107436;28;19919;-64
2021/12/12 04:55:22;;;;;;;;;;;;;;;4.88;100.00;99549.66;5108765;28;19916;-64
2021/12/12 04:57:51;;;;;;;;;;;;;;;5.05;100.00;99536.00;5065091;28;19920;-64
2021/12/12 05:00:18;;;;;;;;;;;;;;;4.88;100.00;99541.13;5106123;28;20392;-64
2021/12/12 05:02:59;;;;;;;;;;;;;;;5.00;100.00;99554.72;5107201;28;19916;-63
2021/12/12 05:05:31;;;;;;;;;;;;;;;5.03;100.00;99554.72;5106017;28;20327;-64
2021/12/12 05:08:17;;;;;;;;;;;;;;;4.89;100.00;99548.78;5106853;28;19965;-64
2021/12/12 05:10:47;;;;;;;;;;;;;;;5.23;100.00;99553.88;5105730;28;19912;-63
2021/12/12 05:13:18;;;;;;;;;;;;;;;5.05;100.00;99553.88;5107099;28;20396;-64
2021/12/12 05:15:51;;;;;;;;;;;;;;;5.16;100.00;99552.16;5106268;28;19920;-64
2021/12/12 05:18:16;;;;;;;;;;;;;;;5.12;100.00;99551.31;5106503;28;20137;-64
2021/12/12 05:20:46;;;;;;;;;;;;;;;4.82;100.00;99549.63;5103930;28;19946;-64
2021/12/12 05:23:13;;;;;;;;;;;;;;;4.84;100.00;99549.66;5107245;28;19963;-64
2021/12/12 05:25:46;;;;;;;;;;;;;;;4.97;100.00;99536.88;5106930;28;19962;-64
2021/12/12 05:28:12;;;;;;;;;;;;;;;4.70;100.00;99539.41;5110372;28;19919;-64
2021/12/12 05:30:38;;;;;;;;;;;;;;;4.52;100.00;99540.28;5099276;28;19923;-64
2021/12/12 05:33:04;;;;;;;;;;;;;;;4.41;100.00;99542.78;5092224;28;19924;-64
2021/12/12 05:35:33;;;;;;;;;;;;;;;4.67;100.00;99539.41;5092306;28;19920;-64
2021/12/12 05:38:00;;;;;;;;;;;;;;;4.51;100.00;99534.28;5111266;28;19912;-64
2021/12/12 05:40:34;;;;;;;;;;;;;;;4.45;100.00;99539.41;5110142;28;19919;-64
2021/12/12 05:43:08;;;;;;;;;;;;;;;4.49;100.00;99533.44;5057610;28;20386;-63
2021/12/12 05:45:34;;;;;;;;;;;;;;;4.57;100.00;99531.75;5090874;28;19911;-64
2021/12/12 05:48:04;;;;;;;;;;;;;;;4.55;100.00;99542.81;5110249;28;19912;-64
2021/12/12 05:50:29;;;;;;;;;;;;;;;4.38;100.00;99538.53;5109355;28;19922;-64
2021/12/12 05:52:55;;;;;;;;;;;;;;;4.49;100.00;99536.00;5109361;28;19919;-64
2021/12/12 05:55:27;;;;;;;;;;;;;;;4.60;100.00;99538.56;5111109;28;19922;-64
2021/12/12 05:57:56;;;;;;;;;;;;;;;4.64;100.00;99536.88;5109521;28;19967;-64
2021/12/12 06:00:28;;;;;;;;;;;;;;;4.53;100.00;99532.59;5110273;28;20312;-63
2021/12/12 06:02:54;;;;;;;;;;;;;;;4.60;100.00;99534.31;5104630;28;19961;-64
2021/12/12 06:05:22;;;;;;;;;;;;;;;4.44;100.00;99532.59;5109913;28;19915;-64
2021/12/12 06:07:49;;;;;;;;;;;;;;;4.50;100.00;99527.50;5088412;28;19916;-64
2021/12/12 06:10:20;;;;;;;;;;;;;;;4.30;100.00;99511.31;5092000;28;20284;-64
2021/12/12 06:12:49;;;;;;;;;;;;;;;4.48;100.00;99529.19;5110644;28;19963;-64
2021/12/12 06:15:16;;;;;;;;;;;;;;;4.45;100.00;99528.34;5103864;28;19918;-64
2021/12/12 06:17:42;;;;;;;;;;;;;;;4.54;100.00;99524.13;5109538;28;20006;-64
2021/12/12 06:20:08;;;;;;;;;;;;;;;4.36;100.00;99524.09;5092241;28;20022;-64
2021/12/12 06:22:33;;;;;;;;;;;;;;;4.70;100.00;99535.19;5110778;28;19911;-63
2021/12/12 06:25:05;;;;;;;;;;;;;;;4.67;100.00;99524.09;5110196;28;19950;-64
2021/12/12 06:27:31;;;;;;;;;;;;;;;4.76;100.00;99524.09;5109313;28;19958;-63
2021/12/12 06:29:58;;;;;;;;;;;;;;;4.80;100.00;99513.06;5092103;28;20419;-64
2021/12/12 06:32:23;;;;;;;;;;;;;;;4.61;100.00;99507.97;5110317;28;20010;-64
2021/12/12 06:34:53;;;;;;;;;;;;;;;4.63;100.00;99513.06;5110347;28;20010;-64
2021/12/12 06:37:19;;;;;;;;;;;;;;;4.59;100.00;99506.25;5107573;28;20002;-64
2021/12/12 06:39:45;;;;;;;;;;;;;;;4.56;100.00;99504.56;5091461;28;19994;-64
2021/12/12 06:42:11;;;;;;;;;;;;;;;4.84;100.00;99503.72;5108984;28;20010;-63
2021/12/12 06:44:39;;;;;;;;;;;;;;;4.84;100.00;99496.91;5111549;28;20376;-64
2021/12/12 06:47:08;;;;;;;;;;;;;;;4.90;100.00;99486.66;5110814;28;19912;-63
2021/12/12 06:49:33;;;;;;;;;;;;;;;4.85;100.00;99485.81;5111084;28;19912;-64
2021/12/12 06:52:00;;;;;;;;;;;;;;;4.99;100.00;99484.09;5110902;28;20599;-64
2021/12/12 06:54:26;;;;;;;;;;;;;;;5.30;100.00;99473.81;5111423;28;19912;-67
2021/12/12 06:56:54;;;;;;;;;;;;;;;5.31;100.00;99467.84;5085053;28;19999;-64
2021/12/12 06:59:24;;;;;;;;;;;;;;;5.22;100.00;99465.31;5085263;28;20429;-63
2021/12/12 07:01:50;;;;;;;;;;;;;;;5.33;100.00;99455.94;5087227;28;19916;-64
2021/12/12 07:04:18;;;;;;;;;;;;;;;4.94;100.00;99478.16;5088277;28;19923;-64
2021/12/12 07:06:47;;;;;;;;;;;;;;;5.15;100.00;99473.88;5088500;28;20286;-64
2021/12/12 07:09:13;;;;;;;;;;;;;;;5.15;100.00;99466.19;5087909;28;19916;-64
2021/12/12 07:11:42;;;;;;;;;;;;;;;5.18;100.00;99466.22;5080269;28;20369;-64
2021/12/12 07:14:09;;;;;;;;;;;;;;;5.17;100.00;99454.28;5080954;28;20422;-64
2021/12/12 07:16:39;;;;;;;;;;;;;;;5.04;100.00;99453.50;5080007;28;19986;-63
2021/12/12 07:19:06;;;;;;;;;;;;;;;5.32;100.00;99458.50;5081099;28;19916;-63
2021/12/12 07:21:36;;;;;;;;;;;;;;;5.30;100.00;99466.16;5079616;28;20003;-63
2021/12/12 07:24:03;;;;;;;;;;;;;;;5.29;100.00;99467.03;5082056;28;19969;-63
2021/12/12 07:26:31;;;;;;;;;;;;;;;5.21;100.00;99468.75;5082128;28;19919;-64
2021/12/12 07:28:58;;;;;;;;;;;;;;;5.21;100.00;99461.09;5081312;28;20408;-64
2021/12/12 07:31:25;;;;;;;;;;;;;;;5.27;100.00;99481.50;5080524;28;19916;-63
2021/12/12 07:33:52;;;;;;;;;;;;;;;5.28;100.00;99472.97;5082572;28;19920;-62
2021/12/12 07:36:18;;;;;;;;;;;;;;;5.27;100.00;99471.28;5101966;28;20410;-63
2021/12/12 07:38:45;;;;;;;;;;;;;;;5.35;100.00;99479.75;5102011;28;19916;-63
2021/12/12 07:41:12;;;;;;;;;;;;;;;5.30;100.00;99486.59;5102215;28;19920;-64
2021/12/12 07:43:37;;;;;;;;;;;;;;;5.46;100.00;99487.41;5101063;28;20399;-64
2021/12/12 07:46:03;;;;;;;;;;;;;;;5.40;100.00;99483.16;5101954;28;19974;-63
2021/12/12 07:48:29;;;;;;;;;;;;;;;5.36;100.00;99490.81;5101550;28;20018;-64
2021/12/12 07:51:01;;;;;;;;;;;;;;;5.29;100.00;99496.81;5101865;28;19990;-63
2021/12/12 07:53:27;;;;;;;;;;;;;;;5.27;100.00;99490.84;5101193;28;20376;-63
2021/12/12 07:55:53;;;;;;;;;;;;;;;5.17;100.00;99501.09;5101817;28;19961;-63
2021/12/12 07:58:19;;;;;;;;;;;;;;;5.32;100.00;99504.47;5101869;28;20471;-63
2021/12/12 08:00:48;;;;;;;;;;;;;;;5.30;100.00;99507.03;5083703;28;19920;-63
2021/12/12 08:03:14;;;;;;;;;;;;;;;5.43;100.00;99503.59;5102268;28;19926;-63
2021/12/12 08:05:41;;;;;;;;;;;;;;;5.37;100.00;99507.88;5102376;28;19911;-63
2021/12/12 08:08:08;;;;;;;;;;;;;;;5.15;100.00;99513.00;5102276;28;19920;-63
2021/12/12 08:10:35;;;;;;;;;;;;;;;5.42;100.00;99516.34;5100849;28;19920;-63
2021/12/12 08:13:02;;;;;;;;;;;;;;;5.50;100.00;99521.47;5083795;28;20326;-63
2021/12/12 08:15:28;;;;;;;;;;;;;;;5.23;100.00;99529.16;5101460;28;19915;-63
2021/12/12 08:17:57;;;;;;;;;;;;;;;5.45;100.00;99527.44;5101849;28;19922;-64
2021/12/12 08:20:25;;;;;;;;;;;;;;;5.58;100.00;99532.50;5100213;28;19920;-63
2021/12/12 08:22:50;;;;;;;;;;;;;;;5.17;100.00;99551.31;5096296;28;19927;-63
2021/12/12 08:25:16;;;;;;;;;;;;;;;5.51;100.00;99548.69;5100058;28;19920;-63
2021/12/12 08:27:42;;;;;;;;;;;;;;;5.45;100.00;99552.97;5100031;28;20366;-64
2021/12/12 08:30:23;;;;;;;;;;;;;;;5.35;100.00;99566.59;5067250;28;20375;-63
2021/12/12 08:35:54;;;;;;;;;;;;;;;5.43;100.00;99585.31;5038487;28;20065;-63
2021/12/12 08:38:21;;;;;;;;;;;;;;;5.59;100.00;99582.75;5038263;28;20026;-64
2021/12/12 08:40:49;;;;;;;;;;;;;;;5.44;100.00;99587.00;5020659;28;19971;-64
2021/12/12 08:43:19;;;;;;;;;;;;;;;5.55;100.00;99598.94;5036830;28;19921;-64
2021/12/12 08:45:52;;;;;;;;;;;;;;;5.58;100.00;99598.91;5037605;28;19964;-63
2021/12/12 08:48:18;;;;;;;;;;;;;;;5.36;100.00;99593.84;5038193;28;20293;-63
2021/12/12 08:50:47;;;;;;;;;;;;;;;5.59;98.70;99603.19;5038538;28;19916;-63
2021/12/12 08:53:13;;;;;;;;;;;;;;;5.78;97.52;99602.28;5037678;28;19921;-63
2021/12/12 08:55:45;;;;;;;;;;;;;;;5.75;97.44;99606.56;5020392;28;21765;-63
2021/12/12 08:58:18;;;;;;;;;;;;;;;5.74;97.90;99595.47;5002659;28;20585;-64
2021/12/12 09:00:55;;;;;;;;;;;;;;;5.70;97.50;99600.59;5019753;28;20735;-63
2021/12/12 09:03:25;;;;;;;;;;;;;;;5.69;97.27;99594.63;5021411;28;19924;-64
2021/12/12 09:05:51;;;;;;;;;;;;;;;5.80;96.93;99592.91;5021837;28;20330;-63
2021/12/12 09:08:18;;;;;;;;;;;;;;;5.73;97.04;99604.00;5021972;28;19924;-63
2021/12/12 09:10:51;;;;;;;;;;;;;;;5.92;96.40;99598.81;5020905;28;19971;-63
2021/12/12 09:13:23;;;;;;;;;;;;;;;5.67;97.79;99593.78;5022028;28;19917;-63
2021/12/12 09:15:48;;;;;;;;;;;;;;;5.65;95.52;99603.16;5002113;28;19921;-63
2021/12/12 09:18:33;;;;;;;;;;;;;;;6.05;93.52;99605.63;5022130;28;20294;-63
2021/12/12 09:21:02;;;;;;;;;;;;;;;5.86;95.34;99600.56;5082399;28;19919;-63
2021/12/12 09:23:36;;;;;;;;;;;;;;;5.99;94.71;99605.66;5066751;28;19911;-63
2021/12/12 09:26:04;;;;;;;;;;;;;;;6.19;95.96;99603.00;5084691;28;19940;-63
2021/12/12 09:29:06;;;;;;;;;;;;;;;6.14;98.64;99600.47;5084425;28;20304;-63
2021/12/12 09:32:01;;;;;;;;;;;;;;;5.93;99.91;99586.03;4999892;28;19928;-63
2021/12/12 09:34:53;;;;;;;;;;;;;;;5.90;98.45;99595.41;4943959;29;19926;-63
2021/12/12 09:37:23;;;;;;;;;;;;;;;6.03;98.06;99602.22;4941108;28;20458;-64
2021/12/12 09:40:00;;;;;;;;;;;;;;;6.21;96.89;99596.19;4952309;28;19961;-63
2021/12/12 09:42:38;;;;;;;;;;;;;;;6.25;98.50;99608.94;4942651;29;20408;-63
2021/12/12 09:45:22;;;;;;;;;;;;;;;6.13;99.02;99603.88;4940838;28;20379;-63
2021/12/12 09:48:13;;;;;;;;;;;;;;;6.21;98.22;99607.25;4941753;28;21451;-63
2021/12/12 09:53:47;;;;;;;;;;;;;;;6.26;95.09;99614.91;4935564;28;20179;-63
2021/12/12 09:56:26;;;;;;;;;;;;;;;6.40;95.33;99617.41;4940700;28;19973;-64
2021/12/12 09:59:10;;;;;;;;;;;;;;;6.24;94.96;99617.47;4959464;28;19918;-63
2021/12/12 10:01:53;;;;;;;;;;;;;;;6.25;94.35;99613.22;4958369;28;19926;-63
2021/12/12 10:04:27;;;;;;;;;;;;;;;6.18;94.41;99607.28;4958636;28;19977;-64
2021/12/12 10:07:20;;;;;;;;;;;;;;;6.16;92.53;99608.13;5021323;28;19971;-63
2021/12/12 10:09:56;;;;;;;;;;;;;;;6.13;89.98;99603.88;5038690;28;20292;-63
2021/12/12 10:12:23;;;;;;;;;;;;;;;6.39;89.26;99605.47;5098987;28;19923;-63
2021/12/12 10:14:51;;;;;;;;;;;;;;;6.33;88.96;99610.63;5101039;28;19916;-63
2021/12/12 10:17:18;;;;;;;;;;;;;;;6.34;88.86;99610.63;5099735;28;19924;-64
2021/12/12 10:19:46;;;;;;;;;;;;;;;6.57;89.07;99612.19;5080691;28;20365;-63
2021/12/12 10:22:37;;;;;;;;;;;;;;;6.61;90.40;99611.31;5098524;28;19920;-63
2021/12/12 10:25:34;;;;;;;;;;;;;;;6.27;91.64;99599.56;5101057;28;19922;-64
2021/12/12 10:28:18;;;;;;;;;;;;;;;6.41;89.53;99619.09;5098945;28;20392;-63
2021/12/12 10:30:56;;;;;;;;;;;;;;;6.58;88.77;99609.63;5100211;28;19939;-64
2021/12/12 10:33:35;;;;;;;;;;;;;;;6.78;86.65;99613.78;5081474;28;20015;-64
2021/12/12 10:36:05;;;;;;;;;;;;;;;6.68;89.49;99598.47;5101133;28;19940;-63
2021/12/12 10:38:36;;;;;;;;;;;;;;;6.40;90.62;99597.78;5096273;28;19957;-63
2021/12/12 10:41:14;;;;;;;;;;;;;;;6.44;89.84;99599.47;5102106;27;20916;-63
2021/12/12 10:44:00;;;;;;;;;;;;;;;6.53;86.68;99601.13;5102403;28;19919;-64
2021/12/12 10:46:49;;;;;;;;;;;;;;;6.43;86.98;99589.22;5103233;28;19920;-63
2021/12/12 10:49:33;;;;;;;;;;;;;;;6.66;84.43;99610.44;5087786;28;19960;-63
2021/12/12 10:52:04;;;;;;;;;;;;;;;6.77;84.40;99604.38;5100424;28;19927;-63
2021/12/12 10:54:41;;;;;;;;;;;;;;;6.82;83.66;99610.31;5097618;28;19916;-64
2021/12/12 11:00:31;;;;;;;;;;;;;;;7.07;82.79;99605.84;5500701;23;20528;-77
2021/12/12 11:02:59;;;;;;;;;;;;;;;6.85;84.05;99602.63;4979968;28;19929;-77
2021/12/12 11:05:48;;;;;;;;;;;;;;;6.78;81.31;99603.53;4975763;28;19926;-77
2021/12/12 11:08:35;;;;;;;;;;;;;;;6.98;79.97;99601.69;4937283;28;19972;-77
2021/12/12 11:11:01;;;;;;;;;;;;;;;6.82;79.57;99605.19;4944759;28;19922;-77
2021/12/12 11:13:26;;;;;;;;;;;;;;;6.89;79.04;99612.00;4945688;28;19929;-77
2021/12/12 11:15:57;;;;;;;;;;;;;;;6.90;77.44;99606.84;4961286;28;19922;-77
2021/12/12 11:18:35;;;;;;;;;;;;;;;6.95;77.40;99617.03;4944262;28;20036;-77
2021/12/12 11:21:12;;;;;;;;;;;;;;;6.88;75.25;99620.50;4948312;28;19922;-77
2021/12/12 11:23:42;;;;;;;;;;;;;;;6.87;76.51;99612.00;4959220;28;20049;-77
2021/12/12 11:26:12;;;;;;;;;;;;;;;6.73;75.68;99600.13;4943802;28;19922;-77
2021/12/12 11:28:43;;;;;;;;;;;;;;;6.89;74.36;99606.88;4933229;28;20033;-76
2021/12/12 11:31:13;;;;;;;;;;;;;;;6.59;73.98;99607.91;4948284;28;19921;-78
2021/12/12 11:33:40;;;;;;;;;;;;;;;7.07;70.01;99622.09;4931573;28;19927;-78
2021/12/12 11:36:08;;;;;;;;;;;;;;;7.26;70.56;99617.66;4964480;28;20445;-78
2021/12/12 11:38:39;;;;;;;;;;;;;;;7.11;71.56;99613.50;4947879;28;19929;-78
2021/12/12 11:41:15;;;;;;;;;;;;;;;7.16;70.17;99615.19;4950403;28;19922;-77
2021/12/12 11:43:59;;;;;;;;;;;;;;;7.28;69.14;99615.94;4952108;28;20013;-78
2021/12/12 11:46:36;;;;;;;;;;;;;;;7.10;71.32;99621.22;4970220;28;19926;-77
2021/12/12 11:49:01;;;;;;;;;;;;;;;7.16;69.32;99620.31;4925270;28;20278;-78
2021/12/12 11:51:35;;;;;;;;;;;;;;;7.05;69.87;99617.84;4969752;28;19961;-77
2021/12/12 11:54:05;;;;;;;;;;;;;;;6.77;68.17;99606.94;4950482;28;19925;-76
2021/12/12 11:56:33;;;;;;;;;;;;;;;6.95;65.95;99627.28;4951024;28;19949;-77
2021/12/12 11:59:04;;;;;;;;;;;;;;;7.07;65.38;99616.97;4949625;28;19918;-77
2021/12/12 12:01:34;;;;;;;;;;;;;;;7.21;64.56;99631.38;4970131;28;20015;-78
2021/12/12 12:04:29;;;;;;;;;;;;;;;7.16;65.41;99630.53;4951990;28;19918;-77
2021/12/12 12:07:04;;;;;;;;;;;;;;;7.39;65.80;99643.16;4965278;28;19990;-77
2021/12/12 12:09:39;;;;;;;;;;;;;;;7.66;66.03;99637.81;4951220;28;19932;-78
2021/12/12 12:12:08;;;;;;;;;;;;;;;7.69;69.83;99634.34;4967775;28;19929;-78
2021/12/12 12:14:38;;;;;;;;;;;;;;;7.57;71.14;99631.91;4970610;28;19945;-78
2021/12/12 12:17:05;;;;;;;;;;;;;;;7.31;72.63;99640.69;4953039;28;19918;-78
2021/12/12 12:19:41;;;;;;;;;;;;;;;7.49;72.67;99620.00;4969491;28;19933;-77
2021/12/12 12:22:13;;;;;;;;;;;;;;;7.63;74.75;99611.34;4972143;28;19914;-78
2021/12/12 12:24:57;;;;;;;;;;;;;;;7.28;75.68;99620.22;4972446;28;19953;-78
2021/12/12 12:27:35;;;;;;;;;;;;;;;7.47;72.81;99631.13;4957510;28;19925;-78
2021/12/12 12:30:00;;;;;;;;;;;;;;;7.21;66.57;99644.19;4945474;28;19997;-78
2021/12/12 12:32:46;;;;;;;;;;;;;;;7.34;65.93;99640.63;4972663;28;20025;-78
2021/12/12 12:35:33;;;;;;;;;;;;;;;7.36;66.66;99645.75;4974750;28;20302;-78
2021/12/12 12:38:17;;;;;;;;;;;;;;;7.42;67.28;99641.44;4975953;28;19914;-78
2021/12/12 12:41:03;;;;;;;;;;;;;;;7.25;67.42;99631.34;4975694;28;19918;-78
2021/12/12 12:43:48;;;;;;;;;;;;;;;7.33;64.88;99642.34;4975724;28;20013;-78
2021/12/12 12:46:17;;;;;;;;;;;;;;;7.33;65.86;99623.59;4976207;28;19918;-79
2021/12/12 12:48:44;;;;;;;;;;;;;;;6.80;64.98;99618.03;4974254;28;19918;-78
2021/12/12 12:51:15;;;;;;;;;;;;;;;7.32;60.10;99634.69;4969625;28;20013;-78
2021/12/12 12:53:51;;;;;;;;;;;;;;;7.53;59.93;99641.34;4975835;28;20264;-76
2021/12/12 12:56:18;;;;;;;;;;;;;;;7.13;60.55;99637.38;4975875;28;19914;-77
2021/12/12 12:58:54;;;;;;;;;;;;;;;7.31;58.31;99641.50;4975430;28;20381;-78
2021/12/12 13:01:26;;;;;;;;;;;;;;;7.41;58.58;99642.31;4975677;28;19922;-77
2021/12/12 13:04:13;;;;;;;;;;;;;;;7.70;56.68;99638.59;4958737;28;19922;-78
2021/12/12 13:07:01;;;;;;;;;;;;;;;7.63;59.18;99642.09;4976082;28;19914;-77
2021/12/12 13:09:36;;;;;;;;;;;;;;;7.94;59.23;99630.66;4975610;28;20548;-79
2021/12/12 13:12:04;;;;;;;;;;;;;;;7.53;64.43;99620.84;4975972;28;19922;-78
2021/12/12 13:14:49;;;;;;;;;;;;;;;7.38;62.11;99618.41;4975724;28;20038;-78
2021/12/12 13:17:24;;;;;;;;;;;;;;;7.63;59.82;99631.84;4974947;28;19926;-78
2021/12/12 13:20:02;;;;;;;;;;;;;;;7.64;60.06;99634.41;4957283;28;19921;-78
2021/12/12 13:22:53;;;;;;;;;;;;;;;7.49;60.23;99616.59;4940930;28;19918;-77
2021/12/12 13:25:22;;;;;;;;;;;;;;;7.54;59.21;99620.81;4957221;28;19926;-77
2021/12/12 13:28:07;;;;;;;;;;;;;;;7.47;57.96;99611.47;4957850;28;19921;-78
2021/12/12 13:30:42;;;;;;;;;;;;;;;7.74;57.16;99625.75;4960894;28;20012;-79
2021/12/12 13:33:20;;;;;;;;;;;;;;;7.78;59.16;99618.88;4958587;28;20014;-78
2021/12/12 13:36:06;;;;;;;;;;;;;;;7.81;59.26;99621.41;4957637;28;19921;-78
2021/12/12 13:38:49;;;;;;;;;;;;;;;7.94;60.04;99620.41;4969266;28;19926;-78
2021/12/12 13:41:28;;;;;;;;;;;;;;;7.82;59.10;99635.06;4972431;28;19918;-78
2021/12/12 13:44:01;;;;;;;;;;;;;;;7.69;60.35;99626.66;4973959;28;20399;-79
2021/12/12 13:46:45;;;;;;;;;;;;;;;7.72;58.26;99629.19;4956024;28;19921;-78
2021/12/12 13:49:17;;;;;;;;;;;;;;;8.04;56.93;99630.56;4956986;28;19918;-78
2021/12/12 13:51:48;;;;;;;;;;;;;;;8.01;60.49;99622.91;4965160;28;19918;-77
2021/12/12 13:54:16;;;;;;;;;;;;;;;7.96;60.02;99621.25;4955995;28;20005;-77
2021/12/12 13:57:00;;;;;;;;;;;;;;;8.04;60.88;99623.69;4973986;28;19918;-79